sensor_id;sensor_type;location;lat;lon;timestamp;temperature;humidity
21019;DHT22;10667;51.056;3.732;2023-02-27T00:00:55;4.20;99.90
21019;DHT22;10667;51.056;3.732;2023-02-27T00:03:21;4.10;99.90
21019;DHT22;10667;51.056;3.732;2023-02-27T00:05:47;4.10;99.90
21019;DHT22;10667;51.056;3.732;2023-02-27T00:08:12;4.10;99.90
21019;DHT22;10667;51.056;3.732;2023-02-27T00:10:38;4.10;99.90
21019;DHT22;10667;51.056;3.732;2023-02-27T00:13:04;4.10;99.90
21019;DHT22;10667;51.056;3.732;2023-02-27T00:15:30;4.00;99.90
21019;DHT22;10667;51.056;3.732;2023-02-27T00:17:57;4.00;99.90
21019;DHT22;10667;51.056;3.732;2023-02-27T00:20:23;4.00;99.90
21019;DHT22;10667;51.056;3.732;2023-02-27T00:22:48;4.00;99.90
21019;DHT22;10667;51.056;3.732;2023-02-27T00:25:14;4.10;99.90
21019;DHT22;10667;51.056;3.732;2023-02-27T00:27:40;4.00;99.90
21019;DHT22;10667;51.056;3.732;2023-02-27T00:30:08;4.00;99.90
21019;DHT22;10667;51.056;3.732;2023-02-27T00:32:35;4.00;99.90
21019;DHT22;10667;51.056;3.732;2023-02-27T00:35:06;4.00;99.90
21019;DHT22;10667;51.056;3.732;2023-02-27T00:37:32;4.00;99.90
21019;DHT22;10667;51.056;3.732;2023-02-27T00:39:59;4.00;99.90
21019;DHT22;10667;51.056;3.732;2023-02-27T00:42:25;3.90;99.90
21019;DHT22;10667;51.056;3.732;2023-02-27T00:44:51;3.80;99.90
21019;DHT22;10667;51.056;3.732;2023-02-27T00:47:17;3.90;99.90
21019;DHT22;10667;51.056;3.732;2023-02-27T00:49:43;3.90;99.90
21019;DHT22;10667;51.056;3.732;2023-02-27T00:52:09;3.80;99.90
21019;DHT22;10667;51.056;3.732;2023-02-27T00:54:35;3.90;99.90
21019;DHT22;10667;51.056;3.732;2023-02-27T00:57:00;3.90;99.90
21019;DHT22;10667;51.056;3.732;2023-02-27T00:59:26;3.80;99.90
21019;DHT22;10667;51.056;3.732;2023-02-27T01:01:52;3.90;99.90
21019;DHT22;10667;51.056;3.732;2023-02-27T01:04:17;3.80;99.90
21019;DHT22;10667;51.056;3.732;2023-02-27T01:06:43;3.80;99.90
21019;DHT22;10667;51.056;3.732;2023-02-27T01:09:09;3.80;99.90
21019;DHT22;10667;51.056;3.732;2023-02-27T01:11:34;3.80;99.90
21019;DHT22;10667;51.056;3.732;2023-02-27T01:14:00;3.70;99.90
21019;DHT22;10667;51.056;3.732;2023-02-27T01:16:26;3.80;99.90
21019;DHT22;10667;51.056;3.732;2023-02-27T01:18:52;3.90;99.90
21019;DHT22;10667;51.056;3.732;2023-02-27T01:21:18;3.70;99.90
21019;DHT22;10667;51.056;3.732;2023-02-27T01:23:44;3.70;99.90
21019;DHT22;10667;51.056;3.732;2023-02-27T01:26:09;3.80;99.90
21019;DHT22;10667;51.056;3.732;2023-02-27T01:28:35;3.80;99.90
21019;DHT22;10667;51.056;3.732;2023-02-27T01:31:01;3.70;99.90
21019;DHT22;10667;51.056;3.732;2023-02-27T01:33:26;3.70;99.90
21019;DHT22;10667;51.056;3.732;2023-02-27T01:35:53;3.60;99.90
21019;DHT22;10667;51.056;3.732;2023-02-27T01:38:18;3.70;99.90
21019;DHT22;10667;51.056;3.732;2023-02-27T01:40:44;3.70;99.90
21019;DHT22;10667;51.056;3.732;2023-02-27T01:43:18;3.70;99.90
21019;DHT22;10667;51.056;3.732;2023-02-27T01:45:45;3.70;99.90
21019;DHT22;10667;51.056;3.732;2023-02-27T01:48:34;3.70;99.90
21019;DHT22;10667;51.056;3.732;2023-02-27T01:51:06;3.70;99.90
21019;DHT22;10667;51.056;3.732;2023-02-27T01:53:35;3.80;99.90
21019;DHT22;10667;51.056;3.732;2023-02-27T01:56:13;3.70;99.90
21019;DHT22;10667;51.056;3.732;2023-02-27T01:58:41;3.70;99.90
21019;DHT22;10667;51.056;3.732;2023-02-27T02:01:07;3.60;99.90
21019;DHT22;10667;51.056;3.732;2023-02-27T02:06:17;3.70;99.90
21019;DHT22;10667;51.056;3.732;2023-02-27T02:08:46;3.80;99.90
21019;DHT22;10667;51.056;3.732;2023-02-27T02:11:15;3.80;99.90
21019;DHT22;10667;51.056;3.732;2023-02-27T02:13:42;3.90;99.90
21019;DHT22;10667;51.056;3.732;2023-02-27T02:16:43;3.90;99.90
21019;DHT22;10667;51.056;3.732;2023-02-27T02:25:40;3.60;99.90
21019;DHT22;10667;51.056;3.732;2023-02-27T02:33:19;3.70;99.90
21019;DHT22;10667;51.056;3.732;2023-02-27T02:36:21;3.70;99.90
21019;DHT22;10667;51.056;3.732;2023-02-27T02:42:04;3.70;99.90
21019;DHT22;10667;51.056;3.732;2023-02-27T02:47:19;3.40;99.90
21019;DHT22;10667;51.056;3.732;2023-02-27T02:50:05;3.40;99.90
21019;DHT22;10667;51.056;3.732;2023-02-27T02:53:10;3.50;99.90
21019;DHT22;10667;51.056;3.732;2023-02-27T02:56:15;3.50;99.90
21019;DHT22;10667;51.056;3.732;2023-02-27T02:58:57;3.40;99.90
21019;DHT22;10667;51.056;3.732;2023-02-27T03:01:35;3.40;99.90
21019;DHT22;10667;51.056;3.732;2023-02-27T03:04:24;3.20;99.90
21019;DHT22;10667;51.056;3.732;2023-02-27T03:07:10;3.30;99.90
21019;DHT22;10667;51.056;3.732;2023-02-27T03:10:01;3.30;99.90
21019;DHT22;10667;51.056;3.732;2023-02-27T03:12:30;3.40;99.90
21019;DHT22;10667;51.056;3.732;2023-02-27T03:15:03;3.40;99.90
21019;DHT22;10667;51.056;3.732;2023-02-27T03:20:08;3.40;99.90
21019;DHT22;10667;51.056;3.732;2023-02-27T03:22:37;3.20;99.90
21019;DHT22;10667;51.056;3.732;2023-02-27T03:25:08;3.20;99.90
21019;DHT22;10667;51.056;3.732;2023-02-27T03:27:42;3.30;99.90
21019;DHT22;10667;51.056;3.732;2023-02-27T03:30:18;3.20;99.90
21019;DHT22;10667;51.056;3.732;2023-02-27T03:32:48;3.20;99.90
21019;DHT22;10667;51.056;3.732;2023-02-27T03:35:18;3.20;99.90
21019;DHT22;10667;51.056;3.732;2023-02-27T03:38:06;3.30;99.90
21019;DHT22;10667;51.056;3.732;2023-02-27T03:40:48;3.20;99.90
21019;DHT22;10667;51.056;3.732;2023-02-27T03:43:28;3.20;99.90
21019;DHT22;10667;51.056;3.732;2023-02-27T03:45:57;3.20;99.90
21019;DHT22;10667;51.056;3.732;2023-02-27T03:48:25;3.00;99.90
21019;DHT22;10667;51.056;3.732;2023-02-27T03:50:51;3.00;99.90
21019;DHT22;10667;51.056;3.732;2023-02-27T03:53:32;3.10;99.90
21019;DHT22;10667;51.056;3.732;2023-02-27T03:56:02;3.10;99.90
21019;DHT22;10667;51.056;3.732;2023-02-27T03:58:29;3.10;99.90
21019;DHT22;10667;51.056;3.732;2023-02-27T04:00:55;3.10;99.90
21019;DHT22;10667;51.056;3.732;2023-02-27T04:03:21;3.20;99.90
21019;DHT22;10667;51.056;3.732;2023-02-27T04:05:47;3.10;99.90
21019;DHT22;10667;51.056;3.732;2023-02-27T04:16:38;3.10;99.90
21019;DHT22;10667;51.056;3.732;2023-02-27T04:29:53;3.00;99.90
21019;DHT22;10667;51.056;3.732;2023-02-27T04:32:37;3.00;99.90
21019;DHT22;10667;51.056;3.732;2023-02-27T04:35:14;3.00;99.90
21019;DHT22;10667;51.056;3.732;2023-02-27T04:38:09;2.90;99.90
21019;DHT22;10667;51.056;3.732;2023-02-27T04:41:02;2.90;99.90
21019;DHT22;10667;51.056;3.732;2023-02-27T04:43:30;3.00;99.90
21019;DHT22;10667;51.056;3.732;2023-02-27T04:45:58;3.00;99.90
21019;DHT22;10667;51.056;3.732;2023-02-27T04:48:28;2.90;99.90
21019;DHT22;10667;51.056;3.732;2023-02-27T04:51:04;3.00;99.90
21019;DHT22;10667;51.056;3.732;2023-02-27T04:53:52;3.10;99.90
21019;DHT22;10667;51.056;3.732;2023-02-27T04:56:35;3.00;99.90
21019;DHT22;10667;51.056;3.732;2023-02-27T04:59:08;3.00;99.90
21019;DHT22;10667;51.056;3.732;2023-02-27T05:01:38;3.00;99.90
21019;DHT22;10667;51.056;3.732;2023-02-27T05:04:07;3.00;99.90
21019;DHT22;10667;51.056;3.732;2023-02-27T05:06:35;2.80;99.90
21019;DHT22;10667;51.056;3.732;2023-02-27T05:09:17;2.80;99.90
21019;DHT22;10667;51.056;3.732;2023-02-27T05:12:18;2.80;99.90
21019;DHT22;10667;51.056;3.732;2023-02-27T05:15:02;2.80;99.90
21019;DHT22;10667;51.056;3.732;2023-02-27T05:20:15;2.90;99.90
21019;DHT22;10667;51.056;3.732;2023-02-27T05:22:45;2.90;99.90
21019;DHT22;10667;51.056;3.732;2023-02-27T05:25:34;2.80;99.90
21019;DHT22;10667;51.056;3.732;2023-02-27T05:28:06;2.70;99.90
21019;DHT22;10667;51.056;3.732;2023-02-27T05:30:46;2.80;99.90
21019;DHT22;10667;51.056;3.732;2023-02-27T05:33:32;2.80;99.90
21019;DHT22;10667;51.056;3.732;2023-02-27T05:36:17;2.90;99.90
21019;DHT22;10667;51.056;3.732;2023-02-27T05:38:56;2.90;99.90
21019;DHT22;10667;51.056;3.732;2023-02-27T05:44:05;2.70;99.90
21019;DHT22;10667;51.056;3.732;2023-02-27T05:46:36;2.70;99.90
21019;DHT22;10667;51.056;3.732;2023-02-27T05:49:15;2.70;99.90
21019;DHT22;10667;51.056;3.732;2023-02-27T05:51:45;2.70;99.90
21019;DHT22;10667;51.056;3.732;2023-02-27T05:56:58;2.70;99.90
21019;DHT22;10667;51.056;3.732;2023-02-27T05:59:37;2.80;99.90
21019;DHT22;10667;51.056;3.732;2023-02-27T06:02:08;2.80;99.90
21019;DHT22;10667;51.056;3.732;2023-02-27T06:04:34;2.70;99.90
21019;DHT22;10667;51.056;3.732;2023-02-27T06:07:00;2.60;99.90
21019;DHT22;10667;51.056;3.732;2023-02-27T06:09:28;2.50;99.90
21019;DHT22;10667;51.056;3.732;2023-02-27T06:11:54;2.50;99.90
21019;DHT22;10667;51.056;3.732;2023-02-27T06:14:20;2.60;99.90
21019;DHT22;10667;51.056;3.732;2023-02-27T06:16:45;2.60;99.90
21019;DHT22;10667;51.056;3.732;2023-02-27T06:19:11;2.70;99.90
21019;DHT22;10667;51.056;3.732;2023-02-27T06:21:37;2.70;99.90
21019;DHT22;10667;51.056;3.732;2023-02-27T06:24:02;2.70;99.90
21019;DHT22;10667;51.056;3.732;2023-02-27T06:26:29;2.80;99.90
21019;DHT22;10667;51.056;3.732;2023-02-27T06:28:55;2.80;99.90
21019;DHT22;10667;51.056;3.732;2023-02-27T06:31:20;2.80;99.90
21019;DHT22;10667;51.056;3.732;2023-02-27T06:33:46;2.70;99.90
21019;DHT22;10667;51.056;3.732;2023-02-27T06:36:12;2.70;99.90
21019;DHT22;10667;51.056;3.732;2023-02-27T06:38:37;2.70;99.90
21019;DHT22;10667;51.056;3.732;2023-02-27T06:41:03;2.70;99.90
21019;DHT22;10667;51.056;3.732;2023-02-27T06:43:29;2.70;99.90
21019;DHT22;10667;51.056;3.732;2023-02-27T06:45:59;2.70;99.90
21019;DHT22;10667;51.056;3.732;2023-02-27T06:48:24;2.60;99.90
21019;DHT22;10667;51.056;3.732;2023-02-27T06:50:52;2.70;99.90
21019;DHT22;10667;51.056;3.732;2023-02-27T06:53:18;2.70;99.90
21019;DHT22;10667;51.056;3.732;2023-02-27T06:55:44;2.60;99.90
21019;DHT22;10667;51.056;3.732;2023-02-27T06:58:10;2.50;99.90
21019;DHT22;10667;51.056;3.732;2023-02-27T07:00:35;2.50;99.90
21019;DHT22;10667;51.056;3.732;2023-02-27T07:03:01;2.50;99.90
21019;DHT22;10667;51.056;3.732;2023-02-27T07:05:29;2.50;99.90
21019;DHT22;10667;51.056;3.732;2023-02-27T07:07:55;2.60;99.90
21019;DHT22;10667;51.056;3.732;2023-02-27T07:10:21;2.60;99.90
21019;DHT22;10667;51.056;3.732;2023-02-27T07:12:46;2.50;99.90
21019;DHT22;10667;51.056;3.732;2023-02-27T07:15:12;2.50;99.90
21019;DHT22;10667;51.056;3.732;2023-02-27T07:17:38;2.50;99.90
21019;DHT22;10667;51.056;3.732;2023-02-27T07:20:06;2.60;99.90
21019;DHT22;10667;51.056;3.732;2023-02-27T07:22:32;2.70;99.90
21019;DHT22;10667;51.056;3.732;2023-02-27T07:24:58;2.70;99.90
21019;DHT22;10667;51.056;3.732;2023-02-27T07:27:24;2.80;99.90
21019;DHT22;10667;51.056;3.732;2023-02-27T07:29:49;2.90;99.90
21019;DHT22;10667;51.056;3.732;2023-02-27T07:32:15;2.90;99.90
21019;DHT22;10667;51.056;3.732;2023-02-27T07:34:41;2.90;99.90
21019;DHT22;10667;51.056;3.732;2023-02-27T07:37:06;2.90;99.90
21019;DHT22;10667;51.056;3.732;2023-02-27T07:39:32;2.80;99.90
21019;DHT22;10667;51.056;3.732;2023-02-27T07:41:58;2.90;99.90
21019;DHT22;10667;51.056;3.732;2023-02-27T07:44:24;2.90;99.90
21019;DHT22;10667;51.056;3.732;2023-02-27T07:46:50;2.90;99.90
21019;DHT22;10667;51.056;3.732;2023-02-27T07:49:15;2.80;99.90
21019;DHT22;10667;51.056;3.732;2023-02-27T07:51:41;2.90;99.90
21019;DHT22;10667;51.056;3.732;2023-02-27T07:54:07;2.90;99.90
21019;DHT22;10667;51.056;3.732;2023-02-27T07:56:33;3.00;99.90
21019;DHT22;10667;51.056;3.732;2023-02-27T07:58:59;3.00;99.90
21019;DHT22;10667;51.056;3.732;2023-02-27T08:01:24;3.10;99.90
21019;DHT22;10667;51.056;3.732;2023-02-27T08:03:50;3.30;99.90
21019;DHT22;10667;51.056;3.732;2023-02-27T08:06:16;3.30;99.90
21019;DHT22;10667;51.056;3.732;2023-02-27T08:08:41;3.30;99.90
21019;DHT22;10667;51.056;3.732;2023-02-27T08:11:07;3.40;99.90
21019;DHT22;10667;51.056;3.732;2023-02-27T08:13:33;3.30;99.90
21019;DHT22;10667;51.056;3.732;2023-02-27T08:15:59;3.30;99.90
21019;DHT22;10667;51.056;3.732;2023-02-27T08:18:24;3.30;99.90
21019;DHT22;10667;51.056;3.732;2023-02-27T08:20:50;3.60;99.90
21019;DHT22;10667;51.056;3.732;2023-02-27T08:23:16;3.60;99.90
21019;DHT22;10667;51.056;3.732;2023-02-27T08:25:42;3.70;99.90
21019;DHT22;10667;51.056;3.732;2023-02-27T08:28:07;3.70;99.90
21019;DHT22;10667;51.056;3.732;2023-02-27T08:30:33;3.70;99.90
21019;DHT22;10667;51.056;3.732;2023-02-27T08:32:58;3.70;99.90
21019;DHT22;10667;51.056;3.732;2023-02-27T08:35:24;3.70;99.90
21019;DHT22;10667;51.056;3.732;2023-02-27T08:37:50;3.80;99.90
21019;DHT22;10667;51.056;3.732;2023-02-27T08:40:16;3.80;99.90
21019;DHT22;10667;51.056;3.732;2023-02-27T08:42:42;4.00;99.90
21019;DHT22;10667;51.056;3.732;2023-02-27T08:45:09;3.90;99.90
21019;DHT22;10667;51.056;3.732;2023-02-27T08:47:34;4.10;99.90
21019;DHT22;10667;51.056;3.732;2023-02-27T08:50:00;4.10;99.90
21019;DHT22;10667;51.056;3.732;2023-02-27T08:52:26;4.20;99.90
21019;DHT22;10667;51.056;3.732;2023-02-27T08:54:52;4.20;99.90
21019;DHT22;10667;51.056;3.732;2023-02-27T08:57:18;4.20;99.90
21019;DHT22;10667;51.056;3.732;2023-02-27T08:59:43;4.30;99.90
21019;DHT22;10667;51.056;3.732;2023-02-27T09:02:10;4.30;99.90
21019;DHT22;10667;51.056;3.732;2023-02-27T09:04:35;4.20;99.90
21019;DHT22;10667;51.056;3.732;2023-02-27T09:07:01;4.30;99.90
21019;DHT22;10667;51.056;3.732;2023-02-27T09:09:27;4.40;99.90
21019;DHT22;10667;51.056;3.732;2023-02-27T09:11:53;4.40;99.90
21019;DHT22;10667;51.056;3.732;2023-02-27T09:14:19;4.40;99.90
21019;DHT22;10667;51.056;3.732;2023-02-27T09:16:45;4.60;99.90
21019;DHT22;10667;51.056;3.732;2023-02-27T09:19:11;4.70;99.90
21019;DHT22;10667;51.056;3.732;2023-02-27T09:21:39;4.80;99.90
21019;DHT22;10667;51.056;3.732;2023-02-27T09:24:05;4.90;99.90
21019;DHT22;10667;51.056;3.732;2023-02-27T09:26:31;4.90;99.90
21019;DHT22;10667;51.056;3.732;2023-02-27T09:28:57;4.80;99.90
21019;DHT22;10667;51.056;3.732;2023-02-27T09:31:22;4.90;99.90
21019;DHT22;10667;51.056;3.732;2023-02-27T09:33:48;4.90;99.90
21019;DHT22;10667;51.056;3.732;2023-02-27T09:36:14;4.90;99.90
21019;DHT22;10667;51.056;3.732;2023-02-27T09:38:40;5.00;99.90
21019;DHT22;10667;51.056;3.732;2023-02-27T09:41:16;5.20;99.90
21019;DHT22;10667;51.056;3.732;2023-02-27T09:43:47;5.20;99.90
21019;DHT22;10667;51.056;3.732;2023-02-27T09:46:22;5.20;99.90
21019;DHT22;10667;51.056;3.732;2023-02-27T09:48:52;5.10;99.90
21019;DHT22;10667;51.056;3.732;2023-02-27T09:51:18;5.10;99.90
21019;DHT22;10667;51.056;3.732;2023-02-27T09:53:47;5.10;99.90
21019;DHT22;10667;51.056;3.732;2023-02-27T09:56:24;5.20;99.90
21019;DHT22;10667;51.056;3.732;2023-02-27T10:01:36;5.30;99.90
21019;DHT22;10667;51.056;3.732;2023-02-27T10:04:38;5.30;99.90
21019;DHT22;10667;51.056;3.732;2023-02-27T10:08:00;5.40;99.90
21019;DHT22;10667;51.056;3.732;2023-02-27T10:13:38;5.50;99.90
21019;DHT22;10667;51.056;3.732;2023-02-27T10:15:40;5.60;99.90
21019;DHT22;10667;51.056;3.732;2023-02-27T10:18:24;5.60;99.90
21019;DHT22;10667;51.056;3.732;2023-02-27T10:20:59;5.70;99.90
21019;DHT22;10667;51.056;3.732;2023-02-27T10:23:50;5.80;99.90
21019;DHT22;10667;51.056;3.732;2023-02-27T10:26:30;5.80;99.90
21019;DHT22;10667;51.056;3.732;2023-02-27T10:28:58;5.90;99.90
21019;DHT22;10667;51.056;3.732;2023-02-27T10:31:30;5.90;99.90
21019;DHT22;10667;51.056;3.732;2023-02-27T10:33:57;5.80;99.90
21019;DHT22;10667;51.056;3.732;2023-02-27T10:36:25;5.80;99.90
21019;DHT22;10667;51.056;3.732;2023-02-27T10:39:06;6.00;99.90
21019;DHT22;10667;51.056;3.732;2023-02-27T10:41:33;5.90;99.90
21019;DHT22;10667;51.056;3.732;2023-02-27T10:44:00;6.10;99.90
21019;DHT22;10667;51.056;3.732;2023-02-27T10:46:30;6.10;99.90
21019;DHT22;10667;51.056;3.732;2023-02-27T10:49:00;6.00;99.90
21019;DHT22;10667;51.056;3.732;2023-02-27T10:51:31;6.00;99.90
21019;DHT22;10667;51.056;3.732;2023-02-27T10:56:57;6.00;99.90
21019;DHT22;10667;51.056;3.732;2023-02-27T10:59:27;6.00;99.90
21019;DHT22;10667;51.056;3.732;2023-02-27T11:01:55;6.10;99.90
21019;DHT22;10667;51.056;3.732;2023-02-27T11:04:36;6.00;99.90
21019;DHT22;10667;51.056;3.732;2023-02-27T11:07:13;6.10;99.90
21019;DHT22;10667;51.056;3.732;2023-02-27T11:09:43;6.10;99.90
21019;DHT22;10667;51.056;3.732;2023-02-27T11:12:27;6.20;99.90
21019;DHT22;10667;51.056;3.732;2023-02-27T11:14:58;6.40;99.90
21019;DHT22;10667;51.056;3.732;2023-02-27T11:17:28;6.40;99.90
21019;DHT22;10667;51.056;3.732;2023-02-27T11:19:56;6.40;99.90
21019;DHT22;10667;51.056;3.732;2023-02-27T11:22:25;6.50;99.90
21019;DHT22;10667;51.056;3.732;2023-02-27T11:24:54;6.60;99.90
21019;DHT22;10667;51.056;3.732;2023-02-27T11:27:34;6.60;99.90
21019;DHT22;10667;51.056;3.732;2023-02-27T11:30:28;6.50;99.90
21019;DHT22;10667;51.056;3.732;2023-02-27T11:32:58;6.60;99.90
21019;DHT22;10667;51.056;3.732;2023-02-27T11:35:30;6.80;99.90
21019;DHT22;10667;51.056;3.732;2023-02-27T11:38:03;6.90;99.90
21019;DHT22;10667;51.056;3.732;2023-02-27T11:40:31;6.90;99.90
21019;DHT22;10667;51.056;3.732;2023-02-27T11:43:15;6.80;99.90
21019;DHT22;10667;51.056;3.732;2023-02-27T11:45:41;6.90;99.90
21019;DHT22;10667;51.056;3.732;2023-02-27T11:57:09;6.90;99.90
21019;DHT22;10667;51.056;3.732;2023-02-27T12:10:20;6.90;99.90
21019;DHT22;10667;51.056;3.732;2023-02-27T12:12:54;7.00;99.90
21019;DHT22;10667;51.056;3.732;2023-02-27T12:21:01;7.00;99.90
21019;DHT22;10667;51.056;3.732;2023-02-27T12:24:15;7.20;99.90
21019;DHT22;10667;51.056;3.732;2023-02-27T12:26:45;7.40;99.90
21019;DHT22;10667;51.056;3.732;2023-02-27T12:29:35;7.40;99.90
21019;DHT22;10667;51.056;3.732;2023-02-27T12:34:53;7.50;99.90
21019;DHT22;10667;51.056;3.732;2023-02-27T12:37:24;7.50;99.90
21019;DHT22;10667;51.056;3.732;2023-02-27T12:39:52;7.50;99.90
21019;DHT22;10667;51.056;3.732;2023-02-27T12:51:32;7.80;99.90
21019;DHT22;10667;51.056;3.732;2023-02-27T12:59:24;8.00;99.10
21019;DHT22;10667;51.056;3.732;2023-02-27T13:05:34;7.90;99.30
21019;DHT22;10667;51.056;3.732;2023-02-27T13:08:25;7.80;99.70
21019;DHT22;10667;51.056;3.732;2023-02-27T13:13:59;7.70;99.30
21019;DHT22;10667;51.056;3.732;2023-02-27T13:16:32;7.70;99.90
21019;DHT22;10667;51.056;3.732;2023-02-27T13:19:26;7.80;99.20
21019;DHT22;10667;51.056;3.732;2023-02-27T13:21:53;7.90;98.80
21019;DHT22;10667;51.056;3.732;2023-02-27T13:24:30;7.80;99.30
21019;DHT22;10667;51.056;3.732;2023-02-27T13:27:09;7.90;99.40
21019;DHT22;10667;51.056;3.732;2023-02-27T13:29:45;7.90;98.30
21019;DHT22;10667;51.056;3.732;2023-02-27T13:32:35;7.90;98.10
21019;DHT22;10667;51.056;3.732;2023-02-27T13:37:56;8.00;97.80
21019;DHT22;10667;51.056;3.732;2023-02-27T13:40:32;8.10;97.90
21019;DHT22;10667;51.056;3.732;2023-02-27T13:43:04;8.10;97.90
21019;DHT22;10667;51.056;3.732;2023-02-27T13:45:49;8.20;97.60
21019;DHT22;10667;51.056;3.732;2023-02-27T13:48:53;8.10;98.00
21019;DHT22;10667;51.056;3.732;2023-02-27T13:56:49;8.20;98.00
21019;DHT22;10667;51.056;3.732;2023-02-27T13:59:22;8.30;97.80
21019;DHT22;10667;51.056;3.732;2023-02-27T14:04:28;8.40;97.10
21019;DHT22;10667;51.056;3.732;2023-02-27T14:06:59;8.40;97.00
21019;DHT22;10667;51.056;3.732;2023-02-27T14:09:31;8.40;96.70
21019;DHT22;10667;51.056;3.732;2023-02-27T14:12:01;8.50;96.80
21019;DHT22;10667;51.056;3.732;2023-02-27T14:14:46;8.60;96.20
21019;DHT22;10667;51.056;3.732;2023-02-27T14:20:00;8.40;97.80
21019;DHT22;10667;51.056;3.732;2023-02-27T14:22:30;8.40;96.90
21019;DHT22;10667;51.056;3.732;2023-02-27T14:25:12;8.40;97.50
21019;DHT22;10667;51.056;3.732;2023-02-27T14:30:32;8.40;97.80
21019;DHT22;10667;51.056;3.732;2023-02-27T14:33:20;8.60;97.80
21019;DHT22;10667;51.056;3.732;2023-02-27T14:35:56;8.70;96.20
21019;DHT22;10667;51.056;3.732;2023-02-27T14:38:23;8.60;96.40
21019;DHT22;10667;51.056;3.732;2023-02-27T14:43:43;8.40;97.70
21019;DHT22;10667;51.056;3.732;2023-02-27T14:46:25;8.30;98.10
21019;DHT22;10667;51.056;3.732;2023-02-27T14:49:00;8.20;98.80
21019;DHT22;10667;51.056;3.732;2023-02-27T14:51:30;8.30;98.00
21019;DHT22;10667;51.056;3.732;2023-02-27T14:54:15;8.40;98.00
21019;DHT22;10667;51.056;3.732;2023-02-27T14:57:02;8.50;97.40
21019;DHT22;10667;51.056;3.732;2023-02-27T14:59:40;8.50;97.40
21019;DHT22;10667;51.056;3.732;2023-02-27T15:04:41;8.50;98.10
21019;DHT22;10667;51.056;3.732;2023-02-27T15:07:18;8.60;97.80
21019;DHT22;10667;51.056;3.732;2023-02-27T15:09:50;8.60;98.20
21019;DHT22;10667;51.056;3.732;2023-02-27T15:12:19;8.60;98.40
21019;DHT22;10667;51.056;3.732;2023-02-27T15:14:55;8.60;98.40
21019;DHT22;10667;51.056;3.732;2023-02-27T15:17:27;8.60;98.30
21019;DHT22;10667;51.056;3.732;2023-02-27T15:20:00;8.50;98.40
21019;DHT22;10667;51.056;3.732;2023-02-27T15:22:28;8.50;98.80
21019;DHT22;10667;51.056;3.732;2023-02-27T15:24:57;8.40;99.20
21019;DHT22;10667;51.056;3.732;2023-02-27T15:27:25;8.30;98.80
21019;DHT22;10667;51.056;3.732;2023-02-27T15:29:54;8.10;99.50
21019;DHT22;10667;51.056;3.732;2023-02-27T15:32:31;7.90;99.90
21019;DHT22;10667;51.056;3.732;2023-02-27T15:34:59;7.80;99.90
21019;DHT22;10667;51.056;3.732;2023-02-27T15:37:28;7.70;99.90
21019;DHT22;10667;51.056;3.732;2023-02-27T15:39:56;7.60;99.90
21019;DHT22;10667;51.056;3.732;2023-02-27T15:42:26;7.50;99.90
21019;DHT22;10667;51.056;3.732;2023-02-27T15:44:53;7.50;99.90
21019;DHT22;10667;51.056;3.732;2023-02-27T15:47:25;7.50;99.90
21019;DHT22;10667;51.056;3.732;2023-02-27T15:49:58;7.60;99.90
21019;DHT22;10667;51.056;3.732;2023-02-27T15:52:26;7.60;99.90
21019;DHT22;10667;51.056;3.732;2023-02-27T15:55:04;7.70;99.90
21019;DHT22;10667;51.056;3.732;2023-02-27T15:57:31;7.70;99.90
21019;DHT22;10667;51.056;3.732;2023-02-27T15:59:58;7.60;99.90
21019;DHT22;10667;51.056;3.732;2023-02-27T16:02:41;7.50;99.90
21019;DHT22;10667;51.056;3.732;2023-02-27T16:05:22;7.50;99.90
21019;DHT22;10667;51.056;3.732;2023-02-27T16:07:48;7.50;99.90
21019;DHT22;10667;51.056;3.732;2023-02-27T16:10:22;7.40;99.90
21019;DHT22;10667;51.056;3.732;2023-02-27T16:12:48;7.40;99.90
21019;DHT22;10667;51.056;3.732;2023-02-27T16:23:24;7.80;99.90
21019;DHT22;10667;51.056;3.732;2023-02-27T16:28:57;7.80;99.90
21019;DHT22;10667;51.056;3.732;2023-02-27T16:33:58;7.80;99.90
21019;DHT22;10667;51.056;3.732;2023-02-27T16:36:27;7.60;99.90
21019;DHT22;10667;51.056;3.732;2023-02-27T16:38:53;7.60;99.90
21019;DHT22;10667;51.056;3.732;2023-02-27T16:41:21;7.60;99.90
21019;DHT22;10667;51.056;3.732;2023-02-27T16:43:48;7.60;99.90
21019;DHT22;10667;51.056;3.732;2023-02-27T16:46:15;7.50;99.90
21019;DHT22;10667;51.056;3.732;2023-02-27T16:48:55;7.60;99.90
21019;DHT22;10667;51.056;3.732;2023-02-27T16:51:25;7.60;99.90
21019;DHT22;10667;51.056;3.732;2023-02-27T16:53:53;7.60;99.90
21019;DHT22;10667;51.056;3.732;2023-02-27T16:56:20;7.60;99.90
21019;DHT22;10667;51.056;3.732;2023-02-27T16:58:47;7.50;99.90
21019;DHT22;10667;51.056;3.732;2023-02-27T17:01:13;7.40;99.90
21019;DHT22;10667;51.056;3.732;2023-02-27T17:03:40;7.40;99.90
21019;DHT22;10667;51.056;3.732;2023-02-27T17:06:06;7.50;99.90
21019;DHT22;10667;51.056;3.732;2023-02-27T17:08:40;7.50;99.90
21019;DHT22;10667;51.056;3.732;2023-02-27T17:11:06;7.40;99.90
21019;DHT22;10667;51.056;3.732;2023-02-27T17:13:33;7.40;99.90
21019;DHT22;10667;51.056;3.732;2023-02-27T17:16:01;7.40;99.90
21019;DHT22;10667;51.056;3.732;2023-02-27T17:18:26;7.40;99.90
21019;DHT22;10667;51.056;3.732;2023-02-27T17:20:52;7.30;99.90
21019;DHT22;10667;51.056;3.732;2023-02-27T17:23:18;7.20;99.90
21019;DHT22;10667;51.056;3.732;2023-02-27T17:25:44;7.30;99.90
21019;DHT22;10667;51.056;3.732;2023-02-27T17:28:10;7.30;99.90
21019;DHT22;10667;51.056;3.732;2023-02-27T17:30:37;7.30;99.90
21019;DHT22;10667;51.056;3.732;2023-02-27T17:33:04;7.30;99.90
21019;DHT22;10667;51.056;3.732;2023-02-27T17:35:29;7.30;99.90
21019;DHT22;10667;51.056;3.732;2023-02-27T17:37:56;7.30;99.90
21019;DHT22;10667;51.056;3.732;2023-02-27T17:40:21;7.20;99.90
21019;DHT22;10667;51.056;3.732;2023-02-27T17:42:47;7.30;99.90
21019;DHT22;10667;51.056;3.732;2023-02-27T17:45:13;7.20;99.90
21019;DHT22;10667;51.056;3.732;2023-02-27T17:47:39;7.30;99.90
21019;DHT22;10667;51.056;3.732;2023-02-27T17:50:06;7.40;99.90
21019;DHT22;10667;51.056;3.732;2023-02-27T17:52:34;7.30;99.90
21019;DHT22;10667;51.056;3.732;2023-02-27T17:55:00;7.30;99.90
21019;DHT22;10667;51.056;3.732;2023-02-27T17:57:27;7.30;99.90
21019;DHT22;10667;51.056;3.732;2023-02-27T17:59:53;7.20;99.90
21019;DHT22;10667;51.056;3.732;2023-02-27T18:02:19;7.30;99.90
21019;DHT22;10667;51.056;3.732;2023-02-27T18:04:44;7.40;99.90
21019;DHT22;10667;51.056;3.732;2023-02-27T18:07:12;7.40;99.90
21019;DHT22;10667;51.056;3.732;2023-02-27T18:09:38;7.50;99.90
21019;DHT22;10667;51.056;3.732;2023-02-27T18:12:04;7.40;99.90
21019;DHT22;10667;51.056;3.732;2023-02-27T18:14:29;7.50;99.90
21019;DHT22;10667;51.056;3.732;2023-02-27T18:16:55;7.50;99.90
21019;DHT22;10667;51.056;3.732;2023-02-27T18:19:21;7.50;99.90
21019;DHT22;10667;51.056;3.732;2023-02-27T18:21:49;7.50;99.90
21019;DHT22;10667;51.056;3.732;2023-02-27T18:24:15;7.40;99.90
21019;DHT22;10667;51.056;3.732;2023-02-27T18:26:41;7.40;99.90
21019;DHT22;10667;51.056;3.732;2023-02-27T18:29:10;7.50;99.90
21019;DHT22;10667;51.056;3.732;2023-02-27T18:31:40;7.50;99.90